Time;durP1;ratioP1;P1;durP2;ratioP2;P2;SDS_P1;SDS_P2;PMS_P1;PMS_P2;Temp;Humidity;BMP_temperature;BMP_pressure;BME280_temperature;BME280_humidity;BME280_pressure;Samples;Min_cycle;Max_cycle;Signal;HPM_P1;HPM_P2
2023/05/30 00:00:14;;;;;;;14.30;4.97;;;10.20;69.90;;;;;;6172101;23;20087;-92
2023/05/30 00:02:42;;;;;;;14.97;4.57;;;10.20;69.70;;;;;;6218010;22;20020;-92
2023/05/30 00:05:09;;;;;;;15.60;4.60;;;10.20;69.60;;;;;;6194456;23;20020;-91
2023/05/30 00:07:38;;;;;;;15.00;4.57;;;10.20;69.60;;;;;;6185210;22;20039;-91
2023/05/30 00:10:04;;;;;;;11.97;4.53;;;10.10;69.60;;;;;;6219644;23;20016;-91
2023/05/30 00:12:30;;;;;;;14.63;4.53;;;10.10;69.60;;;;;;6208160;22;20070;-92
2023/05/30 00:14:59;;;;;;;15.23;5.00;;;10.10;69.60;;;;;;6194109;23;20020;-92
2023/05/30 00:17:32;;;;;;;16.67;5.10;;;10.10;69.60;;;;;;6236054;22;20023;-91
2023/05/30 00:19:59;;;;;;;15.17;4.60;;;10.10;69.70;;;;;;6218264;23;20099;-93
2023/05/30 00:22:25;;;;;;;18.73;4.50;;;10.10;69.80;;;;;;6242673;22;20016;-91
2023/05/30 00:24:51;;;;;;;14.30;5.00;;;10.10;69.80;;;;;;6244330;23;20022;-91
2023/05/30 00:27:17;;;;;;;17.07;4.47;;;10.10;69.80;;;;;;6236465;22;20020;-91
2023/05/30 00:29:45;;;;;;;19.60;4.97;;;10.10;69.90;;;;;;6193750;23;20023;-92
2023/05/30 00:32:12;;;;;;;17.27;4.93;;;10.10;69.90;;;;;;6227870;22;20020;-89
2023/05/30 00:34:37;;;;;;;17.87;5.00;;;10.10;69.90;;;;;;6218610;23;20663;-90
2023/05/30 00:37:09;;;;;;;16.03;4.50;;;10.10;70.00;;;;;;6187441;23;20044;-91
2023/05/30 00:39:35;;;;;;;15.02;4.28;;;10.10;70.10;;;;;;6243398;23;20446;-90
2023/05/30 00:42:04;;;;;;;16.13;4.27;;;10.10;70.10;;;;;;6194056;23;20020;-92
2023/05/30 00:44:30;;;;;;;15.93;4.13;;;10.10;70.10;;;;;;6217655;23;20027;-91
2023/05/30 00:47:04;;;;;;;16.70;3.80;;;10.10;70.10;;;;;;6138007;23;20377;-92
2023/05/30 00:49:35;;;;;;;14.27;4.20;;;10.10;70.10;;;;;;6192468;23;20028;-92
2023/05/30 00:52:01;;;;;;;;;;;10.10;70.00;;;;;;6177827;23;20501;-92
2023/05/30 00:54:29;;;;;;;12.53;3.60;;;10.10;69.80;;;;;;6191263;22;19915;-90
2023/05/30 00:56:55;;;;;;;12.43;3.93;;;10.00;69.80;;;;;;6237624;23;20497;-91
2023/05/30 00:59:24;;;;;;;14.47;4.23;;;10.10;69.80;;;;;;6242101;23;20027;-92
2023/05/30 01:01:51;;;;;;;14.70;4.90;;;10.10;69.70;;;;;;6219350;23;20035;-92
2023/05/30 01:04:20;;;;;;;11.83;4.40;;;10.00;69.80;;;;;;6242452;22;20098;-91
2023/05/30 01:06:46;;;;;;;16.70;4.30;;;10.00;69.70;;;;;;6233604;23;20095;-93
2023/05/30 01:09:20;;;;;;;17.40;4.70;;;10.00;69.80;;;;;;6242726;23;20099;-92
2023/05/30 01:12:00;;;;;;;16.73;4.10;;;10.00;69.90;;;;;;6269388;22;20113;-93
2023/05/30 01:14:40;;;;;;;16.70;4.57;;;10.00;70.00;;;;;;6268238;22;20745;-91
2023/05/30 01:17:44;;;;;;;17.00;4.43;;;10.00;70.10;;;;;;6224512;23;20016;-91
2023/05/30 01:20:18;;;;;;;13.30;4.23;;;10.00;70.20;;;;;;6058778;23;20018;-91
2023/05/30 01:23:28;;;;;;;16.47;4.40;;;10.00;70.00;;;;;;6184754;22;20438;-92
2023/05/30 01:26:33;;;;;;;12.57;4.20;;;10.00;70.00;;;;;;6200684;23;20024;-91
2023/05/30 01:29:13;;;;;;;16.27;4.77;;;10.00;70.00;;;;;;6240327;23;20027;-91
2023/05/30 01:31:42;;;;;;;17.97;4.93;;;10.00;69.90;;;;;;6242524;23;20059;-91
2023/05/30 01:34:08;;;;;;;15.27;4.70;;;10.00;69.90;;;;;;6242271;22;20044;-91
2023/05/30 01:36:35;;;;;;;14.07;4.27;;;10.00;69.90;;;;;;6213288;23;20012;-92
2023/05/30 01:39:01;;;;;;;17.70;4.33;;;10.00;70.00;;;;;;6241295;23;20066;-91
2023/05/30 01:41:36;;;;;;;17.77;4.37;;;10.00;70.00;;;;;;6243274;23;20074;-90
2023/05/30 01:44:11;;;;;;;15.20;4.63;;;10.00;70.00;;;;;;6241529;23;20443;-93
2023/05/30 01:46:42;;;;;;;11.77;4.40;;;10.00;70.00;;;;;;6210708;23;20655;-91
2023/05/30 01:49:29;;;;;;;13.55;4.43;;;10.00;70.00;;;;;;6215643;23;20025;-92
2023/05/30 01:52:00;;;;;;;14.43;4.90;;;10.00;70.00;;;;;;6243473;23;20043;-91
2023/05/30 01:54:30;;;;;;;17.83;5.40;;;10.00;70.00;;;;;;6216845;23;20067;-91
2023/05/30 01:57:29;;;;;;;15.03;4.80;;;10.00;70.00;;;;;;6207881;23;20016;-90
2023/05/30 01:59:59;;;;;;;13.73;4.47;;;10.10;70.10;;;;;;6176562;23;20419;-92
2023/05/30 02:02:45;;;;;;;14.10;4.20;;;10.10;70.00;;;;;;6215940;22;20039;-91
2023/05/30 02:05:14;;;;;;;16.10;4.63;;;10.10;70.10;;;;;;6194254;23;20012;-92
2023/05/30 02:07:40;;;;;;;16.20;4.67;;;10.10;70.00;;;;;;6235326;23;20019;-90
2023/05/30 02:10:06;;;;;;;12.30;4.40;;;10.10;70.00;;;;;;6268481;22;20657;-91
2023/05/30 02:12:32;;;;;;;17.23;4.57;;;10.10;70.00;;;;;;6202860;23;20385;-90
2023/05/30 02:14:58;;;;;;;18.77;4.47;;;10.10;70.00;;;;;;6192972;23;20016;-91
2023/05/30 02:17:25;;;;;;;13.03;4.50;;;10.10;70.10;;;;;;6232235;22;20027;-91
2023/05/30 02:19:51;;;;;;;14.40;4.63;;;10.10;70.20;;;;;;6217598;23;20035;-93
2023/05/30 02:22:17;;;;;;;13.43;4.30;;;10.10;70.10;;;;;;6241856;22;20409;-91
2023/05/30 02:24:45;;;;;;;16.27;4.40;;;10.10;70.20;;;;;;6217255;23;20048;-92
2023/05/30 02:27:11;;;;;;;13.20;4.77;;;10.10;70.20;;;;;;6186656;22;20020;-91
2023/05/30 02:29:37;;;;;;;16.17;4.60;;;10.10;70.20;;;;;;6194708;23;20020;-92
2023/05/30 02:32:03;;;;;;;14.87;4.97;;;10.10;70.30;;;;;;6206445;22;20023;-91
2023/05/30 02:34:38;;;;;;;17.17;5.20;;;10.10;70.20;;;;;;6168350;23;20023;-91
2023/05/30 02:37:05;;;;;;;17.97;5.60;;;10.10;70.20;;;;;;6237005;23;20012;-91
2023/05/30 02:39:32;;;;;;;15.27;4.63;;;10.10;70.20;;;;;;6241391;23;20020;-91
2023/05/30 02:41:58;;;;;;;19.03;5.47;;;10.10;70.20;;;;;;6217552;23;20016;-90
2023/05/30 02:44:24;;;;;;;15.57;5.40;;;10.10;70.20;;;;;;6241135;23;20039;-91
2023/05/30 02:46:50;;;;;;;18.80;5.43;;;10.10;70.10;;;;;;6232460;23;20019;-91
2023/05/30 02:49:15;;;;;;;15.23;5.07;;;10.10;70.10;;;;;;6153497;23;20040;-90
2023/05/30 02:51:50;;;;;;;15.10;5.63;;;10.10;70.00;;;;;;6268960;22;20020;-93
2023/05/30 02:54:21;;;;;;;21.87;5.17;;;10.10;70.00;;;;;;6214897;23;20044;-93
2023/05/30 02:56:56;;;;;;;17.15;5.18;;;10.10;70.10;;;;;;6160430;23;20220;-92
2023/05/30 02:59:21;;;;;;;18.40;5.70;;;10.10;70.10;;;;;;6215858;23;20028;-92
2023/05/30 03:01:50;;;;;;;15.83;5.93;;;10.10;70.10;;;;;;6192880;23;20019;-91
2023/05/30 03:04:15;;;;;;;20.57;4.90;;;10.10;70.20;;;;;;6166453;23;20024;-90
2023/05/30 03:06:41;;;;;;;17.70;4.93;;;10.10;70.30;;;;;;6183351;23;20706;-90
2023/05/30 03:09:11;;;;;;;19.13;5.13;;;10.10;70.30;;;;;;6165213;23;20023;-92
2023/05/30 03:11:36;;;;;;;15.10;4.97;;;10.10;70.20;;;;;;6192609;23;20026;-91
2023/05/30 03:14:02;;;;;;;21.33;5.50;;;10.10;70.00;;;;;;6241758;22;20095;-91
2023/05/30 03:16:28;;;;;;;14.37;5.13;;;10.10;69.90;;;;;;6185845;23;20502;-93
2023/05/30 03:18:54;;;;;;;18.17;5.33;;;10.10;69.70;;;;;;6188786;23;20020;-91
2023/05/30 03:21:22;;;;;;;23.03;5.77;;;10.10;69.70;;;;;;6242502;23;20051;-92
2023/05/30 03:23:49;;;;;;;17.87;4.87;;;10.10;69.60;;;;;;6209075;23;20021;-91
2023/05/30 03:26:17;;;;;;;16.50;5.67;;;10.10;69.60;;;;;;6211762;23;20016;-94
2023/05/30 03:28:43;;;;;;;20.10;5.33;;;10.10;69.60;;;;;;6211795;23;20050;-91
2023/05/30 03:31:12;;;;;;;22.03;5.47;;;10.10;69.70;;;;;;6192550;23;20292;-91
2023/05/30 03:33:38;;;;;;;22.33;5.93;;;10.10;69.80;;;;;;6191558;23;20036;-90
2023/05/30 03:36:06;;;;;;;17.93;5.33;;;10.10;69.80;;;;;;6243212;23;20016;-91
2023/05/30 03:38:33;;;;;;;22.60;6.00;;;10.10;69.90;;;;;;6188243;23;20447;-91
2023/05/30 03:40:59;;;;;;;19.23;5.57;;;10.20;70.00;;;;;;6243088;23;20026;-92
2023/05/30 03:43:38;;;;;;;20.83;6.10;;;10.20;70.00;;;;;;6242063;23;20020;-92
2023/05/30 03:46:19;;;;;;;24.10;5.97;;;10.20;70.20;;;;;;6193896;23;20051;-93
2023/05/30 03:48:48;;;;;;;17.35;5.55;;;10.20;70.30;;;;;;6190228;23;20027;-91
2023/05/30 03:51:17;;;;;;;16.90;5.87;;;10.20;70.30;;;;;;6243380;23;20103;-91
2023/05/30 03:53:54;;;;;;;20.87;6.17;;;10.20;70.40;;;;;;6142969;23;20566;-92
2023/05/30 03:56:26;;;;;;;20.33;5.77;;;10.20;70.40;;;;;;6161973;23;20103;-94
2023/05/30 03:58:58;;;;;;;19.27;5.77;;;10.20;70.50;;;;;;6145931;23;20044;-93
2023/05/30 04:01:50;;;;;;;21.63;5.63;;;10.20;70.60;;;;;;6189546;23;20442;-93
2023/05/30 04:04:36;;;;;;;12.82;5.00;;;10.20;70.50;;;;;;6180174;23;20020;-93
2023/05/30 04:07:08;;;;;;;18.13;5.50;;;10.30;70.70;;;;;;6262511;22;20216;-90
2023/05/30 04:09:34;;;;;;;19.50;5.40;;;10.30;70.70;;;;;;6165222;23;20016;-91
2023/05/30 04:12:01;;;;;;;17.53;5.30;;;10.30;70.60;;;;;;6193155;23;20022;-91
2023/05/30 04:14:27;;;;;;;19.43;5.77;;;10.30;70.70;;;;;;6192981;23;20020;-91
2023/05/30 04:16:53;;;;;;;17.87;5.33;;;10.30;70.70;;;;;;6211852;23;20091;-91
2023/05/30 04:19:18;;;;;;;17.88;5.43;;;10.30;70.80;;;;;;6208601;23;20044;-90
2023/05/30 04:21:46;;;;;;;16.40;5.47;;;10.40;70.80;;;;;;6244112;23;20024;-91
2023/05/30 04:24:14;;;;;;;16.45;5.45;;;10.40;70.90;;;;;;6217184;22;20020;-92
2023/05/30 04:26:40;;;;;;;15.33;4.83;;;10.40;70.90;;;;;;6160015;23;20091;-93
2023/05/30 04:29:08;;;;;;;15.10;4.70;;;10.40;71.00;;;;;;6238380;23;20035;-91
2023/05/30 04:31:34;;;;;;;17.70;4.90;;;10.50;71.00;;;;;;6191768;23;20020;-90
2023/05/30 04:34:00;;;;;;;14.17;4.87;;;10.50;71.00;;;;;;6165832;23;20020;-90
2023/05/30 04:36:27;;;;;;;15.40;5.20;;;10.50;71.00;;;;;;6189454;23;20050;-91
2023/05/30 04:38:53;;;;;;;19.00;5.20;;;10.50;71.00;;;;;;6165839;23;20024;-91
2023/05/30 04:41:24;;;;;;;15.60;5.00;;;10.50;71.10;;;;;;6193098;23;20066;-90
2023/05/30 04:44:00;;;;;;;14.57;5.25;;;10.50;71.10;;;;;;6217227;23;20026;-90
2023/05/30 04:46:28;;;;;;;12.30;4.17;;;10.50;71.20;;;;;;6214589;23;20024;-92
2023/05/30 04:48:55;;;;;;;19.67;4.90;;;10.60;71.40;;;;;;6213533;23;20020;-91
2023/05/30 04:51:24;;;;;;;11.02;4.28;;;10.60;71.50;;;;;;6243090;23;20063;-91
2023/05/30 04:53:51;;;;;;;15.23;4.67;;;10.60;71.50;;;;;;6216536;23;20020;-90
2023/05/30 04:56:20;;;;;;;19.83;4.70;;;10.60;71.50;;;;;;6216167;23;20091;-92
2023/05/30 04:58:53;;;;;;;16.98;4.10;;;10.60;71.50;;;;;;6212466;23;20020;-91
2023/05/30 05:01:23;;;;;;;14.90;4.70;;;10.60;71.60;;;;;;6217956;23;20439;-92
2023/05/30 05:03:49;;;;;;;12.88;4.60;;;10.70;71.60;;;;;;6192023;23;20506;-91
2023/05/30 05:06:15;;;;;;;12.65;4.53;;;10.60;71.70;;;;;;6241752;23;20013;-91
2023/05/30 05:08:41;;;;;;;15.13;4.38;;;10.60;71.80;;;;;;6236406;23;20027;-90
2023/05/30 05:11:08;;;;;;;17.95;4.85;;;10.70;71.80;;;;;;6243493;23;20394;-90
2023/05/30 05:13:36;;;;;;;16.00;4.20;;;10.70;71.80;;;;;;6216178;23;20016;-92
2023/05/30 05:16:04;;;;;;;13.30;3.67;;;10.70;71.90;;;;;;6155621;23;20012;-91
2023/05/30 05:18:30;;;;;;;17.00;3.67;;;10.70;71.90;;;;;;6219912;23;20020;-92
2023/05/30 05:20:56;;;;;;;11.68;3.90;;;10.70;71.90;;;;;;6193253;23;20250;-91
2023/05/30 05:23:23;;;;;;;14.97;3.83;;;10.70;71.90;;;;;;6191443;23;20515;-91
2023/05/30 05:25:49;;;;;;;15.87;3.70;;;10.70;71.90;;;;;;6168414;23;20020;-92
2023/05/30 05:28:15;;;;;;;15.40;3.70;;;10.70;72.00;;;;;;6233987;23;20451;-90
2023/05/30 05:30:41;;;;;;;12.53;3.70;;;10.80;72.00;;;;;;6193037;23;20020;-92
2023/05/30 05:33:07;;;;;;;16.35;4.10;;;10.70;72.00;;;;;;6241643;22;20024;-91
2023/05/30 05:35:34;;;;;;;17.00;3.73;;;10.80;72.10;;;;;;6168643;23;20383;-92
2023/05/30 05:38:00;;;;;;;12.45;3.65;;;10.80;72.10;;;;;;6209927;23;20339;-90
2023/05/30 05:40:26;;;;;;;12.68;3.50;;;10.80;72.20;;;;;;6242465;23;20100;-92
2023/05/30 05:43:00;;;;;;;12.77;3.42;;;10.80;72.20;;;;;;6193834;23;20031;-91
2023/05/30 05:45:28;;;;;;;11.13;3.20;;;10.80;72.20;;;;;;6168392;23;20470;-92
2023/05/30 05:47:54;;;;;;;14.60;3.78;;;10.80;72.20;;;;;;6183762;23;20034;-90
2023/05/30 05:50:20;;;;;;;10.87;3.40;;;10.80;72.20;;;;;;6192995;23;20031;-92
2023/05/30 05:52:46;;;;;;;13.40;3.60;;;10.80;72.30;;;;;;6190990;23;20020;-91
2023/05/30 05:55:12;;;;;;;16.73;3.60;;;10.80;72.40;;;;;;6242739;23;20453;-91
2023/05/30 05:57:37;;;;;;;12.48;4.10;;;10.80;72.50;;;;;;6233690;23;20012;-90
2023/05/30 06:00:05;;;;;;;9.40;3.83;;;10.90;72.50;;;;;;6189251;23;20087;-93
2023/05/30 06:02:32;;;;;;;13.98;4.00;;;10.90;72.70;;;;;;6209352;23;20070;-91
2023/05/30 06:04:58;;;;;;;12.70;3.30;;;10.90;72.70;;;;;;6239297;23;20043;-90
2023/05/30 06:07:33;;;;;;;11.07;3.90;;;10.90;72.70;;;;;;6231721;22;20431;-96
2023/05/30 06:10:14;;;;;;;12.82;3.85;;;10.90;72.70;;;;;;6217422;23;20023;-92
2023/05/30 06:16:33;;;;;;;17.70;3.97;;;10.90;72.70;;;;;;6065716;23;20014;-94
2023/05/30 06:19:09;;;;;;;;;;;;;;;;;;;;;
2023/05/30 06:21:38;;;;;;;12.95;4.00;;;11.00;72.80;;;;;;6243845;23;20012;-92
2023/05/30 06:24:05;;;;;;;15.00;3.92;;;11.00;72.80;;;;;;6167256;23;20585;-92
2023/05/30 06:26:31;;;;;;;10.45;4.07;;;11.00;72.90;;;;;;6154964;23;20019;-92
2023/05/30 06:28:57;;;;;;;12.23;3.08;;;11.00;73.00;;;;;;6236958;23;20443;-91
2023/05/30 06:31:23;;;;;;;13.87;4.70;;;11.00;73.30;;;;;;6243496;23;20012;-92
2023/05/30 06:33:49;;;;;;;10.77;4.07;;;11.00;73.60;;;;;;6192453;23;20028;-94
2023/05/30 06:36:15;;;;;;;14.75;3.70;;;11.00;73.60;;;;;;6238957;23;20067;-92
2023/05/30 06:39:01;;;;;;;13.25;3.80;;;11.00;73.70;;;;;;6252229;22;20027;-93
2023/05/30 06:41:49;;;;;;;11.80;3.10;;;11.00;73.90;;;;;;6200746;22;20496;-96
2023/05/30 06:44:21;;;;;;;9.73;3.15;;;11.00;73.80;;;;;;6218992;22;20035;-94
2023/05/30 06:46:58;;;;;;;8.45;2.80;;;11.00;73.70;;;;;;6215520;22;20047;-94
2023/05/30 06:50:29;;;;;;;7.80;2.67;;;11.00;73.70;;;;;;6154867;22;20024;-93
2023/05/30 06:55:51;;;;;;;10.18;2.05;;;11.10;73.70;;;;;;6205406;22;20319;-93
2023/05/30 06:58:25;;;;;;;9.37;2.23;;;11.10;73.70;;;;;;6181160;22;20085;-94
2023/05/30 07:01:26;;;;;;;10.13;2.30;;;11.10;73.70;;;;;;6198288;23;20058;-94
2023/05/30 07:03:51;;;;;;;9.02;2.70;;;11.00;73.90;;;;;;6172928;23;20031;-91
2023/05/30 07:06:25;;;;;;;9.65;2.17;;;11.00;73.90;;;;;;6186941;23;20027;-94
2023/05/30 07:09:36;;;;;;;7.32;2.38;;;11.00;74.00;;;;;;6165472;23;20032;-92
2023/05/30 07:12:28;;;;;;;9.23;2.28;;;11.00;74.60;;;;;;6189463;23;20020;-92
2023/05/30 07:15:06;;;;;;;5.17;2.53;;;11.00;74.50;;;;;;6189082;23;20039;-92
2023/05/30 07:18:04;;;;;;;13.23;3.00;;;11.00;74.70;;;;;;6140623;23;20339;-91
2023/05/30 07:20:35;;;;;;;4.63;2.53;;;11.10;75.10;;;;;;6185415;22;20016;-91
2023/05/30 07:30:19;;;;;;;;;;;;;;;;;;;;;
2023/05/30 07:39:43;;;;;;;8.65;2.40;;;11.20;75.00;;;;;;6101044;23;20030;-91
2023/05/30 07:43:00;;;;;;;8.23;2.20;;;11.20;74.70;;;;;;6209927;22;20174;-93
2023/05/30 07:46:00;;;;;;;4.95;1.98;;;11.20;74.90;;;;;;6100286;23;20312;-92
2023/05/30 07:49:09;;;;;;;4.13;1.35;;;11.30;75.40;;;;;;6035927;23;20026;-93
2023/05/30 07:52:10;;;;;;;;;;;;;;;;;;;;;
2023/05/30 07:55:51;;;;;;;;;;;;;;;;;;;;;
2023/05/30 08:00:10;;;;;;;;;;;;;;;;;;;;;
2023/05/30 08:03:50;;;;;;;4.03;1.00;;;11.10;75.70;;;;;;6010448;23;20523;-92
2023/05/30 08:07:28;;;;;;;;;;;;;;;;;;;;;
2023/05/30 08:14:11;;;;;;;1.92;0.50;;;11.50;74.90;;;;;;5856791;24;20038;-96
2023/05/30 08:39:27;;;;;;;2.33;0.40;;;12.20;73.30;;;;;;5734759;24;20091;-93
2023/05/30 08:41:40;;;;;;;2.03;0.47;;;12.20;72.60;;;;;;5748386;24;20023;-95
2023/05/30 08:44:07;;;;;;;1.02;0.40;;;12.20;72.70;;;;;;6041985;23;20486;-91
2023/05/30 08:46:38;;;;;;;4.15;0.45;;;12.20;72.70;;;;;;6183737;23;20012;-94
2023/05/30 08:49:07;;;;;;;1.73;0.30;;;12.20;72.70;;;;;;6196446;23;20021;-91
2023/05/30 08:51:36;;;;;;;4.32;0.60;;;12.10;72.90;;;;;;6212457;23;20451;-92
2023/05/30 08:54:05;;;;;;;2.72;0.30;;;12.10;72.90;;;;;;6173026;23;20028;-91
2023/05/30 08:56:37;;;;;;;2.25;0.47;;;12.10;73.00;;;;;;6179533;23;20014;-93
2023/05/30 08:59:11;;;;;;;1.30;0.28;;;12.10;73.20;;;;;;6159162;23;20020;-94
2023/05/30 09:01:38;;;;;;;0.98;0.10;;;12.10;73.30;;;;;;6187468;23;20384;-90
2023/05/30 09:04:06;;;;;;;1.25;0.10;;;12.20;73.60;;;;;;6159406;23;20020;-91
2023/05/30 09:06:35;;;;;;;1.95;0.20;;;12.20;73.90;;;;;;6157162;23;20710;-94
2023/05/30 09:09:09;;;;;;;2.45;0.60;;;12.30;74.30;;;;;;6182619;23;20020;-92
2023/05/30 09:11:36;;;;;;;1.58;0.40;;;12.50;74.60;;;;;;6161788;23;20013;-92
2023/05/30 09:14:04;;;;;;;1.65;0.17;;;12.50;74.00;;;;;;6193573;23;20024;-91
2023/05/30 09:16:32;;;;;;;2.53;0.40;;;12.50;73.90;;;;;;6183015;23;20067;-93
2023/05/30 09:18:59;;;;;;;2.50;0.30;;;12.50;73.80;;;;;;6208261;23;20025;-90
2023/05/30 09:21:25;;;;;;;2.50;0.43;;;12.60;73.50;;;;;;6185232;23;20017;-89
2023/05/30 09:23:54;;;;;;;1.80;0.30;;;12.70;73.30;;;;;;6159943;23;20024;-91
2023/05/30 09:31:03;;;;;;;2.80;0.30;;;13.00;73.10;;;;;;6153303;23;20027;-96
2023/05/30 09:45:45;;;;;;;1.23;0.50;;;12.90;71.60;;;;;;6129225;23;20029;-95
2023/05/30 09:51:37;;;;;;;2.20;0.35;;;12.80;71.30;;;;;;6219208;23;20066;-95
2023/05/30 09:54:12;;;;;;;1.92;0.50;;;12.80;71.50;;;;;;6173903;23;20035;-94
2023/05/30 10:03:41;;;;;;;1.95;0.43;;;12.90;70.50;;;;;;6130024;23;20021;-96
2023/05/30 10:06:54;;;;;;;2.88;0.77;;;12.80;70.70;;;;;;6102648;23;20053;-96
2023/05/30 10:09:23;;;;;;;1.58;0.50;;;12.80;70.50;;;;;;6172524;23;20027;-91
2023/05/30 10:12:16;;;;;;;2.30;0.68;;;12.80;70.90;;;;;;6192094;23;20029;-96
2023/05/30 10:14:53;;;;;;;2.72;0.98;;;12.80;70.80;;;;;;6200395;23;20024;-91
2023/05/30 10:17:23;;;;;;;1.58;0.60;;;12.90;70.70;;;;;;6151201;23;20016;-90
2023/05/30 10:20:12;;;;;;;3.03;0.75;;;12.90;70.60;;;;;;6171728;23;20016;-93
2023/05/30 10:22:47;;;;;;;1.00;0.50;;;13.00;70.30;;;;;;6209929;23;20478;-91
2023/05/30 10:25:17;;;;;;;2.03;0.68;;;13.00;70.50;;;;;;6191328;23;20023;-91
2023/05/30 10:27:52;;;;;;;3.33;0.80;;;13.00;70.40;;;;;;6209488;23;20338;-94
2023/05/30 10:30:28;;;;;;;1.88;0.80;;;13.00;70.10;;;;;;6190650;23;20016;-91
2023/05/30 10:35:53;;;;;;;2.15;0.38;;;13.00;69.60;;;;;;6209870;23;20099;-91
2023/05/30 10:38:26;;;;;;;1.77;0.45;;;13.00;69.80;;;;;;6157462;23;20024;-92
2023/05/30 10:41:16;;;;;;;0.82;0.17;;;13.10;70.00;;;;;;6215526;23;20052;-92
2023/05/30 10:44:05;;;;;;;1.98;0.30;;;13.30;69.30;;;;;;6189830;23;20454;-90
2023/05/30 10:46:39;;;;;;;2.35;0.17;;;13.30;69.50;;;;;;6182011;23;20024;-94
2023/05/30 10:49:07;;;;;;;1.02;0.40;;;13.30;69.40;;;;;;6187279;23;20023;-91
2023/05/30 10:51:58;;;;;;;1.98;0.45;;;13.30;69.40;;;;;;6241496;23;20027;-91
2023/05/30 10:54:25;;;;;;;1.67;0.47;;;13.30;69.10;;;;;;6212984;23;20020;-90
2023/05/30 10:56:51;;;;;;;2.63;0.40;;;13.30;69.50;;;;;;6185115;23;20022;-92
2023/05/30 10:59:21;;;;;;;0.93;0.40;;;13.20;69.20;;;;;;6171760;23;20020;-91
2023/05/30 11:02:07;;;;;;;1.92;0.30;;;13.20;68.90;;;;;;6190913;23;20028;-92
2023/05/30 11:04:35;;;;;;;1.48;0.38;;;13.10;69.10;;;;;;6198798;23;20027;-91
2023/05/30 11:07:26;;;;;;;2.58;0.60;;;13.10;69.20;;;;;;6182523;23;20107;-92
2023/05/30 11:10:12;;;;;;;2.10;1.00;;;13.00;69.40;;;;;;6164772;23;20047;-91
2023/05/30 11:12:42;;;;;;;1.50;0.68;;;13.00;69.70;;;;;;6189056;23;20066;-89
2023/05/30 11:15:08;;;;;;;1.00;0.60;;;13.00;69.70;;;;;;6190763;23;20016;-92
2023/05/30 11:17:37;;;;;;;1.58;0.70;;;13.00;69.80;;;;;;6146717;23;20143;-91
2023/05/30 11:20:47;;;;;;;1.00;0.80;;;13.10;69.70;;;;;;6196327;23;20634;-91
2023/05/30 11:23:28;;;;;;;0.98;0.50;;;13.10;69.50;;;;;;6202650;23;20055;-92
2023/05/30 11:25:59;;;;;;;1.00;0.50;;;13.20;69.30;;;;;;6215794;23;20073;-92
2023/05/30 11:28:45;;;;;;;2.90;0.63;;;13.20;69.30;;;;;;6144389;23;20017;-92
2023/05/30 11:31:30;;;;;;;0.80;0.40;;;13.20;69.30;;;;;;6169266;23;20022;-90
2023/05/30 11:34:09;;;;;;;1.40;0.35;;;13.20;68.90;;;;;;6174449;23;20030;-92
2023/05/30 11:36:46;;;;;;;2.22;0.68;;;13.20;69.00;;;;;;6207149;23;20055;-95
2023/05/30 11:39:12;;;;;;;2.03;0.70;;;13.20;69.00;;;;;;6179040;23;20025;-93
2023/05/30 11:41:39;;;;;;;2.72;0.70;;;13.30;69.10;;;;;;6156653;23;20104;-92
2023/05/30 11:44:25;;;;;;;2.65;0.95;;;13.30;69.20;;;;;;6144519;23;20025;-91
2023/05/30 11:47:13;;;;;;;1.40;0.73;;;13.30;69.40;;;;;;6173196;23;20104;-94
2023/05/30 11:52:43;;;;;;;1.63;0.50;;;13.40;69.30;;;;;;6126639;23;20017;-92
2023/05/30 11:55:12;;;;;;;2.03;0.77;;;13.40;69.40;;;;;;6180899;23;20039;-92
2023/05/30 11:57:41;;;;;;;2.17;0.93;;;13.50;69.50;;;;;;6174219;23;20048;-90
2023/05/30 12:00:15;;;;;;;2.70;1.00;;;13.50;69.70;;;;;;6158776;23;20103;-91
2023/05/30 12:02:43;;;;;;;0.77;0.52;;;13.60;69.80;;;;;;6142601;23;20368;-91
2023/05/30 12:05:13;;;;;;;1.85;0.70;;;13.70;69.60;;;;;;6157600;23;20017;-91
2023/05/30 12:07:54;;;;;;;2.35;0.50;;;13.90;69.30;;;;;;6140270;23;21405;-90
2023/05/30 12:11:08;;;;;;;;;;;;;;;;;;;;;
2023/05/30 12:17:38;;;;;;;1.10;0.57;;;14.00;68.60;;;;;;6169325;23;20020;-92
2023/05/30 12:20:12;;;;;;;1.13;0.60;;;14.00;68.10;;;;;;6180448;23;20052;-91
2023/05/30 12:23:16;;;;;;;1.17;0.52;;;14.00;68.70;;;;;;6170227;23;20016;-92
2023/05/30 12:25:55;;;;;;;2.67;0.50;;;14.00;68.80;;;;;;6038566;23;20493;-92
2023/05/30 12:28:33;;;;;;;47.15;5.03;;;14.10;68.60;;;;;;6093235;23;20052;-92
2023/05/30 12:31:48;;;;;;;1.33;0.60;;;14.10;68.60;;;;;;6152755;23;20452;-92
2023/05/30 12:34:34;;;;;;;2.15;0.60;;;14.10;68.50;;;;;;6144459;23;20503;-92
2023/05/30 12:37:07;;;;;;;2.08;0.70;;;14.00;68.80;;;;;;6177745;23;20013;-90
2023/05/30 12:40:00;;;;;;;1.17;0.73;;;14.00;68.90;;;;;;6194020;23;20365;-91
2023/05/30 12:42:38;;;;;;;1.30;0.43;;;14.00;68.90;;;;;;6190748;23;20053;-92
2023/05/30 12:45:10;;;;;;;4.35;0.80;;;13.90;68.90;;;;;;6194605;23;20047;-92
2023/05/30 12:47:56;;;;;;;0.88;0.50;;;14.00;69.20;;;;;;6208365;23;20021;-91
2023/05/30 12:50:22;;;;;;;0.93;0.50;;;14.10;68.70;;;;;;6173362;23;20024;-91
2023/05/30 12:52:52;;;;;;;1.48;0.40;;;14.10;68.70;;;;;;6176424;23;20454;-91
2023/05/30 12:55:49;;;;;;;0.53;0.40;;;14.20;68.50;;;;;;6213314;23;20070;-93
2023/05/30 12:58:20;;;;;;;0.90;0.45;;;14.10;67.60;;;;;;6177686;23;20047;-92
2023/05/30 13:00:46;;;;;;;2.58;0.57;;;14.00;68.30;;;;;;6179771;23;20017;-91
2023/05/30 13:07:12;;;;;;;0.98;0.32;;;13.90;69.00;;;;;;6177090;23;20008;-95
2023/05/30 13:13:51;;;;;;;3.03;0.80;;;13.80;68.90;;;;;;5996579;23;20038;-96
2023/05/30 13:20:05;;;;;;;1.48;0.77;;;13.90;68.40;;;;;;6047207;23;20029;-94
2023/05/30 13:23:31;;;;;;;1.33;0.70;;;13.90;68.20;;;;;;6024388;23;20022;-95
2023/05/30 13:26:51;;;;;;;1.63;0.93;;;14.00;68.20;;;;;;5929092;24;20487;-95
2023/05/30 13:34:26;;;;;;;1.10;0.70;;;14.10;67.60;;;;;;5812992;24;20033;-93
2023/05/30 13:37:04;;;;;;;2.45;0.75;;;14.00;67.90;;;;;;5830735;24;20564;-95
2023/05/30 13:40:45;;;;;;;;;;;;;;;;;;;;;
2023/05/30 13:47:29;;;;;;;6.65;1.25;;;13.70;69.70;;;;;;5838294;24;20097;-95
2023/05/30 13:50:12;;;;;;;2.13;1.20;;;13.60;69.60;;;;;;5854382;24;20013;-94
2023/05/30 13:53:17;;;;;;;3.20;1.27;;;13.70;69.60;;;;;;5833974;24;20537;-95
2023/05/30 13:59:42;;;;;;;2.15;1.23;;;13.90;69.10;;;;;;5886482;23;20051;-93
2023/05/30 14:02:45;;;;;;;3.25;1.17;;;13.80;69.00;;;;;;6011069;23;20062;-94
2023/05/30 14:05:26;;;;;;;;;;;;;;;;;;;;;
2023/05/30 14:20:40;;;;;;;2.00;0.60;;;13.70;69.50;;;;;;5842576;24;20022;-95
2023/05/30 14:24:15;;;;;;;5.25;0.50;;;13.60;69.40;;;;;;5898571;24;20074;-95
2023/05/30 14:27:25;;;;;;;4.82;1.50;;;13.60;69.70;;;;;;5892540;24;20028;-94
2023/05/30 14:34:20;;;;;;;3.20;1.30;;;13.30;70.10;;;;;;5809463;24;20075;-95
2023/05/30 14:48:11;;;;;;;3.00;1.10;;;13.10;70.70;;;;;;5918688;23;20104;-92
2023/05/30 14:55:23;;;;;;;3.20;1.08;;;13.10;70.50;;;;;;6048599;23;20054;-93
2023/05/30 14:58:09;;;;;;;2.90;1.13;;;13.10;70.50;;;;;;5844834;24;20119;-94
2023/05/30 15:00:38;;;;;;;3.95;1.35;;;13.20;70.30;;;;;;5828372;24;20021;-91
2023/05/30 15:04:00;;;;;;;2.92;1.20;;;13.30;70.20;;;;;;5964203;23;20024;-95
2023/05/30 15:07:26;;;;;;;4.85;1.25;;;13.30;70.30;;;;;;6066227;23;20461;-96
2023/05/30 15:18:13;;;;;;;4.22;1.27;;;13.30;69.70;;;;;;5809468;24;20022;-93
2023/05/30 15:34:45;;;;;;;;;;;;;;;;;;;;;
2023/05/30 15:38:33;;;;;;;2.50;1.40;;;13.10;69.80;;;;;;6193578;23;20020;-93
2023/05/30 16:14:37;;;;;;;;;;;;;;;;;;;;;
2023/05/30 16:41:35;;;;;;;3.38;1.55;;;12.40;71.70;;;;;;5891330;24;20098;-93
2023/05/30 16:48:10;;;;;;;5.75;1.70;;;12.40;71.60;;;;;;5979135;23;20077;-90
2023/05/30 16:50:38;;;;;;;4.47;1.58;;;12.30;71.40;;;;;;6120088;23;20037;-92
2023/05/30 16:53:15;;;;;;;4.80;1.73;;;12.30;71.50;;;;;;6119468;23;20024;-91
2023/05/30 16:55:40;;;;;;;6.88;1.70;;;12.30;71.60;;;;;;6137142;23;20017;-91
2023/05/30 16:58:06;;;;;;;4.63;1.73;;;12.40;71.50;;;;;;6153762;23;20465;-89
2023/05/30 17:00:44;;;;;;;9.70;2.58;;;12.30;71.60;;;;;;6113161;23;20027;-91
2023/05/30 17:03:10;;;;;;;6.72;2.10;;;12.30;71.60;;;;;;6161679;23;20017;-91
2023/05/30 17:05:36;;;;;;;5.47;2.35;;;12.30;71.60;;;;;;6137645;23;20108;-91
2023/05/30 17:08:05;;;;;;;8.43;3.00;;;12.20;71.60;;;;;;6130641;23;20473;-91
2023/05/30 17:10:31;;;;;;;5.63;2.90;;;12.20;71.70;;;;;;6137666;23;20027;-90
2023/05/30 17:13:17;;;;;;;4.88;2.70;;;12.20;71.80;;;;;;6160473;23;20021;-91
2023/05/30 17:15:44;;;;;;;7.13;2.75;;;12.20;71.80;;;;;;6161697;23;20032;-90
2023/05/30 17:18:10;;;;;;;7.30;2.70;;;12.20;71.80;;;;;;6104241;23;20021;-90
2023/05/30 17:20:36;;;;;;;6.55;2.65;;;12.10;71.90;;;;;;6186796;23;20032;-92
2023/05/30 17:23:13;;;;;;;4.45;1.90;;;12.10;71.80;;;;;;6184774;23;20027;-91
2023/05/30 17:25:39;;;;;;;4.55;2.08;;;12.20;71.90;;;;;;6186319;23;20039;-91